createdAt,value
2019-03-30T00:04:13.313Z,7.46
2019-03-30T00:09:34.525Z,7.33
2019-03-30T00:14:55.401Z,7.57
2019-03-30T00:20:16.678Z,7.39
2019-03-30T00:25:37.494Z,7.12
2019-03-30T00:30:58.610Z,7.11
2019-03-30T00:36:19.835Z,7.22
2019-03-30T00:41:40.750Z,7.24
2019-03-30T00:47:01.987Z,7.11
2019-03-30T00:52:22.789Z,6.97
2019-03-30T00:57:44.407Z,7.09
2019-03-30T01:03:05.604Z,6.98
2019-03-30T01:08:26.676Z,6.98
2019-03-30T01:13:47.795Z,7.12
2019-03-30T01:19:08.891Z,7.03
2019-03-30T01:24:30.059Z,6.75
2019-03-30T01:29:51.167Z,6.67
2019-03-30T01:35:12.152Z,6.62
2019-03-30T01:40:33.349Z,6.57
2019-03-30T01:45:54.635Z,6.57
2019-03-30T01:51:15.970Z,6.57
2019-03-30T01:56:37.175Z,6.48
2019-03-30T02:01:58.091Z,6.49
2019-03-30T02:07:19.392Z,6.45
2019-03-30T02:12:40.426Z,6.31
2019-03-30T02:18:01.266Z,6.18
2019-03-30T02:23:22.427Z,5.96
2019-03-30T02:28:43.599Z,5.82
2019-03-30T02:34:05.076Z,5.86
2019-03-30T02:39:26.483Z,5.81
2019-03-30T02:44:47.758Z,5.85
2019-03-30T02:50:09.042Z,5.76
2019-03-30T02:55:29.937Z,5.51
2019-03-30T03:00:50.574Z,5.13
2019-03-30T03:06:12.761Z,4.97
2019-03-30T03:11:33.562Z,5.00
2019-03-30T03:16:54.864Z,4.80
2019-03-30T03:22:15.965Z,4.81
2019-03-30T03:27:36.737Z,4.71
2019-03-30T03:32:57.663Z,4.70
2019-03-30T03:38:46.386Z,4.67
2019-03-30T03:44:07.670Z,4.72
2019-03-30T03:49:29.035Z,4.69
2019-03-30T03:54:51.907Z,4.61
2019-03-30T04:00:13.589Z,4.45
2019-03-30T04:05:38.020Z,4.37
2019-03-30T04:10:59.544Z,4.32
2019-03-30T04:16:20.422Z,4.23
2019-03-30T04:21:44.304Z,4.31
2019-03-30T04:27:04.032Z,4.09
2019-03-30T04:32:25.013Z,4.04
2019-03-30T04:37:46.181Z,3.83
2019-03-30T04:43:07.145Z,3.68
2019-03-30T04:48:29.623Z,3.75
2019-03-30T04:53:50.723Z,3.73
2019-03-30T04:59:11.857Z,3.62
2019-03-30T05:04:32.827Z,3.59
2019-03-30T05:09:53.928Z,3.55
2019-03-30T05:15:14.891Z,3.55
2019-03-30T05:20:36.051Z,3.76
2019-03-30T05:25:57.415Z,3.62
2019-03-30T05:31:18.775Z,3.64
2019-03-30T05:36:39.792Z,3.97
2019-03-30T05:42:01.139Z,3.92
2019-03-30T05:47:22.381Z,4.25
2019-03-30T05:52:43.440Z,4.14
2019-03-30T05:58:04.580Z,4.42
2019-03-30T06:03:25.843Z,4.41
2019-03-30T06:08:46.584Z,4.51
2019-03-30T06:14:07.400Z,4.76
2019-03-30T06:19:28.139Z,4.92
2019-03-30T06:24:49.359Z,5.16
2019-03-30T06:30:24.077Z,5.45
2019-03-30T06:35:44.743Z,5.77
2019-03-30T06:41:05.461Z,6.08
2019-03-30T06:46:26.651Z,6.29
2019-03-30T06:51:47.623Z,6.41
2019-03-30T06:57:08.393Z,6.43
2019-03-30T07:02:29.509Z,6.48
2019-03-30T07:07:51.383Z,6.72
2019-03-30T07:13:12.470Z,6.93
2019-03-30T07:18:35.325Z,7.29
2019-03-30T07:23:56.233Z,7.45
2019-03-30T07:29:17.325Z,7.40
2019-03-30T07:34:41.582Z,7.67
2019-03-30T07:40:01.165Z,7.95
2019-03-30T07:45:22.541Z,8.18
2019-03-30T07:50:43.881Z,8.50
2019-03-30T07:56:08.592Z,8.67
2019-03-30T08:01:28.430Z,9.09
2019-03-30T08:06:49.508Z,9.44
2019-03-30T08:12:10.663Z,9.76
2019-03-30T08:17:31.975Z,9.97
2019-03-30T08:22:53.148Z,10.29
2019-03-30T08:28:14.508Z,10.59
2019-03-30T08:33:35.449Z,10.76
2019-03-30T08:38:56.585Z,11.12
2019-03-30T08:44:17.608Z,11.14
2019-03-30T08:49:38.729Z,11.30
2019-03-30T08:54:59.917Z,11.72
2019-03-30T09:00:36.619Z,11.96
2019-03-30T09:05:57.547Z,12.23
2019-03-30T09:11:18.687Z,12.72
2019-03-30T09:16:39.949Z,12.73
2019-03-30T09:22:00.845Z,13.19
2019-03-30T09:27:22.089Z,13.59
2019-03-30T09:32:45.045Z,13.90
2019-03-30T09:38:05.530Z,13.87
2019-03-30T09:43:26.966Z,13.94
2019-03-30T09:48:48.132Z,14.33
2019-03-30T09:54:22.821Z,14.61
2019-03-30T09:59:32.059Z,14.69
2019-03-30T10:04:53.151Z,14.85
2019-03-30T10:10:14.587Z,15.10
2019-03-30T10:15:35.463Z,15.54
2019-03-30T10:20:56.067Z,16.49
2019-03-30T10:26:17.498Z,16.32
2019-03-30T10:31:38.453Z,16.75
2019-03-30T10:37:00.399Z,16.83
2019-03-30T10:42:21.139Z,16.92
2019-03-30T10:47:42.099Z,17.46
2019-03-30T10:53:03.262Z,17.25
2019-03-30T10:58:24.513Z,17.52
2019-03-30T11:03:45.737Z,17.58
2019-03-30T11:22:17.203Z,17.80
2019-03-30T11:27:39.526Z,17.36
2019-03-30T11:33:00.380Z,17.37
2019-03-30T11:38:22.592Z,17.70
2019-03-30T11:43:43.630Z,17.68
2019-03-30T11:49:04.622Z,18.03
2019-03-30T11:54:25.881Z,18.32
2019-03-30T11:59:47.105Z,18.61
2019-03-30T12:05:08.880Z,18.36
2019-03-30T12:10:30.526Z,18.49
2019-03-30T12:15:51.197Z,18.79
2019-03-30T12:21:12.176Z,18.79
2019-03-30T12:26:33.316Z,18.97
2019-03-30T12:31:54.582Z,19.16
2019-03-30T12:37:15.607Z,18.77
2019-03-30T12:42:36.891Z,19.34
2019-03-30T12:47:57.960Z,19.62
2019-03-30T12:53:19.438Z,19.74
2019-03-30T12:58:40.687Z,20.19
2019-03-30T13:04:01.904Z,20.30
2019-03-30T13:09:22.939Z,19.72
2019-03-30T13:14:44.139Z,20.07
2019-03-30T13:20:06.084Z,20.26
2019-03-30T13:25:26.945Z,20.13
2019-03-30T13:30:47.868Z,20.52
2019-03-30T13:36:10.735Z,21.18
2019-03-30T13:41:31.544Z,20.71
2019-03-30T13:46:52.427Z,20.22
2019-03-30T13:52:13.612Z,20.77
2019-03-30T13:57:34.485Z,21.06
2019-03-30T14:02:55.467Z,21.31
2019-03-30T14:08:17.583Z,23.54
2019-03-30T14:13:38.745Z,23.54
2019-03-30T14:19:00.218Z,24.87
2019-03-30T14:24:21.269Z,24.97
2019-03-30T14:29:42.298Z,23.91
2019-03-30T14:35:03.888Z,24.88
2019-03-30T14:40:24.921Z,24.48
2019-03-30T14:45:46.095Z,23.95
2019-03-30T14:51:07.288Z,25.62
2019-03-30T14:56:28.539Z,26.58
2019-03-30T15:08:07.072Z,25.87
2019-03-30T15:13:27.823Z,23.62
2019-03-30T15:18:48.944Z,23.80
2019-03-30T15:24:10.338Z,25.87
2019-03-30T15:29:31.418Z,24.46
2019-03-30T15:34:52.925Z,25.12
2019-03-30T15:40:15.804Z,25.43
2019-03-30T15:45:37.289Z,24.85
2019-03-30T15:50:58.245Z,26.00
2019-03-30T15:56:19.733Z,24.77
2019-03-30T16:01:40.794Z,24.63
2019-03-30T16:07:02.084Z,26.25
2019-03-30T16:12:24.070Z,26.34
2019-03-30T16:17:45.507Z,28.03
2019-03-30T16:23:06.675Z,27.66
2019-03-30T16:28:27.975Z,26.12
2019-03-30T16:33:49.034Z,24.89
2019-03-30T16:39:10.101Z,23.14
2019-03-30T16:44:31.007Z,22.97
2019-03-30T16:49:51.544Z,23.24
2019-03-30T16:55:12.677Z,23.89
2019-03-30T17:00:33.838Z,22.55
2019-03-30T17:05:55.702Z,22.55
2019-03-30T17:11:16.282Z,22.22
2019-03-30T17:16:37.539Z,22.44
2019-03-30T17:21:58.548Z,22.33
2019-03-30T17:27:19.651Z,21.29
2019-03-30T17:32:40.547Z,19.69
2019-03-30T17:38:01.438Z,18.69
2019-03-30T17:43:22.679Z,18.13
2019-03-30T17:48:43.896Z,17.85
2019-03-30T17:54:05.253Z,17.35
2019-03-30T17:59:27.337Z,17.20
2019-03-30T18:04:48.335Z,17.06
2019-03-30T18:10:10.913Z,16.63
2019-03-30T18:15:34.542Z,16.41
2019-03-30T18:20:55.363Z,16.27
2019-03-30T18:26:16.607Z,16.24
2019-03-30T18:31:38.640Z,16.14
2019-03-30T18:36:59.899Z,15.91
2019-03-30T18:42:20.673Z,15.76
2019-03-30T18:47:41.695Z,15.56
2019-03-30T18:53:02.770Z,15.39
2019-03-30T18:58:24.156Z,15.44
2019-03-30T19:03:44.887Z,15.09
2019-03-30T19:09:06.886Z,14.95
2019-03-30T19:14:27.852Z,14.45
2019-03-30T19:19:50.284Z,14.43
2019-03-30T19:25:11.544Z,14.42
2019-03-30T19:30:32.687Z,14.53
2019-03-30T19:35:53.432Z,14.64
2019-03-30T19:41:14.520Z,14.52
2019-03-30T19:46:35.567Z,14.37
2019-03-30T19:51:56.289Z,13.99
2019-03-30T19:57:17.477Z,13.88
2019-03-30T20:02:38.724Z,13.38
2019-03-30T20:08:11.441Z,13.15
2019-03-30T20:13:22.653Z,13.24
2019-03-30T20:18:43.204Z,13.18
2019-03-30T20:24:04.771Z,13.01
2019-03-30T20:29:26.117Z,13.04
2019-03-30T20:34:47.333Z,12.85
2019-03-30T20:40:09.034Z,12.86
2019-03-30T20:45:30.110Z,12.82
2019-03-30T20:50:51.239Z,12.61
2019-03-30T20:56:11.886Z,12.71
2019-03-30T21:01:32.963Z,12.64
2019-03-30T21:06:54.340Z,12.60
2019-03-30T21:12:15.584Z,12.46
2019-03-30T21:17:36.653Z,11.90
2019-03-30T21:22:57.875Z,11.67
2019-03-30T21:28:19.056Z,11.65
2019-03-30T21:33:40.151Z,11.60
2019-03-30T21:39:01.139Z,11.50
2019-03-30T21:44:22.626Z,11.69
2019-03-30T21:49:43.751Z,11.70
2019-03-30T21:55:05.146Z,11.72
2019-03-30T22:00:37.259Z,11.77
2019-03-30T22:05:58.184Z,11.59
2019-03-30T22:11:19.159Z,11.42
2019-03-30T22:16:40.148Z,11.57
2019-03-30T22:22:01.416Z,11.91
2019-03-30T22:27:22.221Z,11.67
2019-03-30T22:32:43.619Z,11.61
2019-03-30T22:38:04.694Z,11.63
2019-03-30T22:43:25.590Z,11.41
2019-03-30T22:48:46.746Z,11.25
2019-03-30T22:54:07.927Z,11.13
2019-03-30T22:59:29.163Z,11.05
2019-03-30T23:04:50.178Z,11.09
2019-03-30T23:10:10.979Z,11.08
2019-03-30T23:15:31.907Z,10.97
2019-03-30T23:20:53.277Z,10.93
2019-03-30T23:26:14.453Z,10.95
2019-03-30T23:31:35.598Z,10.97
2019-03-30T23:36:56.607Z,10.91
2019-03-30T23:42:17.353Z,10.78
2019-03-30T23:47:38.510Z,10.78
2019-03-30T23:53:00.522Z,10.53
2019-03-30T23:58:21.698Z,10.50
